sensor_id;sensor_type;location;lat;lon;timestamp;temperature;humidity
3310;DHT22;1667;53.238;10.394;2023-04-01T00:01:56;13.60;99.90
3310;DHT22;1667;53.238;10.394;2023-04-01T00:06:54;13.60;99.90
3310;DHT22;1667;53.238;10.394;2023-04-01T00:11:53;13.60;99.90
3310;DHT22;1667;53.238;10.394;2023-04-01T00:16:52;13.50;99.90
3310;DHT22;1667;53.238;10.394;2023-04-01T00:21:52;13.50;99.90
3310;DHT22;1667;53.238;10.394;2023-04-01T00:26:50;13.50;99.90
3310;DHT22;1667;53.238;10.394;2023-04-01T00:31:49;13.50;99.90
3310;DHT22;1667;53.238;10.394;2023-04-01T00:36:48;13.50;99.90
3310;DHT22;1667;53.238;10.394;2023-04-01T00:41:48;13.50;99.90
3310;DHT22;1667;53.238;10.394;2023-04-01T00:46:47;13.40;99.90
3310;DHT22;1667;53.238;10.394;2023-04-01T00:51:47;13.40;99.90
3310;DHT22;1667;53.238;10.394;2023-04-01T00:56:51;13.40;99.90
3310;DHT22;1667;53.238;10.394;2023-04-01T01:01:53;13.40;99.90
3310;DHT22;1667;53.238;10.394;2023-04-01T01:06:59;13.40;99.90
3310;DHT22;1667;53.238;10.394;2023-04-01T01:12:07;13.40;99.90
3310;DHT22;1667;53.238;10.394;2023-04-01T01:17:12;13.30;99.90
3310;DHT22;1667;53.238;10.394;2023-04-01T01:22:21;13.30;99.90
3310;DHT22;1667;53.238;10.394;2023-04-01T01:27:24;13.30;99.90
3310;DHT22;1667;53.238;10.394;2023-04-01T01:32:43;13.20;99.90
3310;DHT22;1667;53.238;10.394;2023-04-01T01:37:52;13.20;99.90
3310;DHT22;1667;53.238;10.394;2023-04-01T01:42:56;13.20;99.90
3310;DHT22;1667;53.238;10.394;2023-04-01T01:47:57;13.20;99.90
3310;DHT22;1667;53.238;10.394;2023-04-01T01:53:03;13.20;99.90
3310;DHT22;1667;53.238;10.394;2023-04-01T01:58:06;13.20;99.90
3310;DHT22;1667;53.238;10.394;2023-04-01T02:03:10;13.20;99.90
3310;DHT22;1667;53.238;10.394;2023-04-01T02:08:14;13.20;99.90
3310;DHT22;1667;53.238;10.394;2023-04-01T02:13:17;13.10;99.90
3310;DHT22;1667;53.238;10.394;2023-04-01T02:18:19;13.10;99.90
3310;DHT22;1667;53.238;10.394;2023-04-01T02:23:20;13.10;99.90
3310;DHT22;1667;53.238;10.394;2023-04-01T02:28:20;13.10;99.90
3310;DHT22;1667;53.238;10.394;2023-04-01T02:33:20;13.10;99.90
3310;DHT22;1667;53.238;10.394;2023-04-01T02:38:21;13.10;99.90
3310;DHT22;1667;53.238;10.394;2023-04-01T02:43:20;13.10;99.90
3310;DHT22;1667;53.238;10.394;2023-04-01T02:48:18;13.10;99.90
3310;DHT22;1667;53.238;10.394;2023-04-01T02:53:17;13.10;99.90
3310;DHT22;1667;53.238;10.394;2023-04-01T02:58:17;13.10;99.90
3310;DHT22;1667;53.238;10.394;2023-04-01T03:03:16;13.10;99.90
3310;DHT22;1667;53.238;10.394;2023-04-01T03:08:15;13.10;99.90
3310;DHT22;1667;53.238;10.394;2023-04-01T03:13:13;13.10;99.90
3310;DHT22;1667;53.238;10.394;2023-04-01T03:18:14;13.00;99.90
3310;DHT22;1667;53.238;10.394;2023-04-01T03:23:13;13.00;99.90
3310;DHT22;1667;53.238;10.394;2023-04-01T03:28:13;13.00;99.90
3310;DHT22;1667;53.238;10.394;2023-04-01T03:33:14;13.00;99.90
3310;DHT22;1667;53.238;10.394;2023-04-01T03:38:12;13.00;99.90
3310;DHT22;1667;53.238;10.394;2023-04-01T03:43:11;13.00;99.90
3310;DHT22;1667;53.238;10.394;2023-04-01T03:48:10;13.00;99.90
3310;DHT22;1667;53.238;10.394;2023-04-01T03:53:10;13.00;99.90
3310;DHT22;1667;53.238;10.394;2023-04-01T03:58:12;13.00;99.90
3310;DHT22;1667;53.238;10.394;2023-04-01T04:03:11;13.00;99.90
3310;DHT22;1667;53.238;10.394;2023-04-01T04:08:11;12.90;99.90
3310;DHT22;1667;53.238;10.394;2023-04-01T04:13:09;12.90;99.90
3310;DHT22;1667;53.238;10.394;2023-04-01T04:18:16;12.90;99.90
3310;DHT22;1667;53.238;10.394;2023-04-01T04:23:16;12.90;99.90
3310;DHT22;1667;53.238;10.394;2023-04-01T04:28:15;12.90;99.90
3310;DHT22;1667;53.238;10.394;2023-04-01T04:33:14;12.90;99.90
3310;DHT22;1667;53.238;10.394;2023-04-01T04:38:13;13.00;99.90
3310;DHT22;1667;53.238;10.394;2023-04-01T04:43:15;12.90;99.90
3310;DHT22;1667;53.238;10.394;2023-04-01T04:48:15;12.90;99.90
3310;DHT22;1667;53.238;10.394;2023-04-01T04:53:17;12.90;99.90
3310;DHT22;1667;53.238;10.394;2023-04-01T04:58:18;12.90;99.90
3310;DHT22;1667;53.238;10.394;2023-04-01T05:03:17;12.90;99.90
3310;DHT22;1667;53.238;10.394;2023-04-01T05:08:16;12.90;99.90
3310;DHT22;1667;53.238;10.394;2023-04-01T05:13:14;12.90;99.90
3310;DHT22;1667;53.238;10.394;2023-04-01T05:18:17;12.90;99.90
3310;DHT22;1667;53.238;10.394;2023-04-01T05:23:16;12.90;99.90
3310;DHT22;1667;53.238;10.394;2023-04-01T05:28:15;12.90;99.90
3310;DHT22;1667;53.238;10.394;2023-04-01T05:33:17;12.90;99.90
3310;DHT22;1667;53.238;10.394;2023-04-01T05:38:16;12.90;99.90
3310;DHT22;1667;53.238;10.394;2023-04-01T05:43:15;12.90;99.90
3310;DHT22;1667;53.238;10.394;2023-04-01T05:48:18;12.90;99.90
3310;DHT22;1667;53.238;10.394;2023-04-01T05:53:17;12.80;99.90
3310;DHT22;1667;53.238;10.394;2023-04-01T05:58:16;12.80;99.90
3310;DHT22;1667;53.238;10.394;2023-04-01T06:03:18;12.80;99.90
3310;DHT22;1667;53.238;10.394;2023-04-01T06:08:17;12.80;99.90
3310;DHT22;1667;53.238;10.394;2023-04-01T06:13:30;12.90;99.90
3310;DHT22;1667;53.238;10.394;2023-04-01T06:19:01;12.90;99.90
3310;DHT22;1667;53.238;10.394;2023-04-01T06:24:12;13.00;99.90
3310;DHT22;1667;53.238;10.394;2023-04-01T06:29:32;13.00;99.90
3310;DHT22;1667;53.238;10.394;2023-04-01T06:35:15;13.00;99.90
3310;DHT22;1667;53.238;10.394;2023-04-01T06:40:31;13.00;99.90
3310;DHT22;1667;53.238;10.394;2023-04-01T06:45:41;13.10;99.90
3310;DHT22;1667;53.238;10.394;2023-04-01T06:51:23;13.10;99.90
3310;DHT22;1667;53.238;10.394;2023-04-01T06:56:44;13.10;99.90
3310;DHT22;1667;53.238;10.394;2023-04-01T07:01:53;13.10;99.90
3310;DHT22;1667;53.238;10.394;2023-04-01T07:06:56;13.00;99.90
3310;DHT22;1667;53.238;10.394;2023-04-01T07:12:01;12.70;99.90
3310;DHT22;1667;53.238;10.394;2023-04-01T07:17:33;12.60;99.90
3310;DHT22;1667;53.238;10.394;2023-04-01T07:22:39;12.40;99.90
3310;DHT22;1667;53.238;10.394;2023-04-01T07:27:50;12.20;99.90
3310;DHT22;1667;53.238;10.394;2023-04-01T07:32:54;12.10;99.90
3310;DHT22;1667;53.238;10.394;2023-04-01T07:38:09;11.90;99.90
3310;DHT22;1667;53.238;10.394;2023-04-01T07:50:12;11.70;99.90
3310;DHT22;1667;53.238;10.394;2023-04-01T07:55:17;11.40;99.90
3310;DHT22;1667;53.238;10.394;2023-04-01T08:00:21;11.40;99.90
3310;DHT22;1667;53.238;10.394;2023-04-01T08:05:36;11.50;99.90
3310;DHT22;1667;53.238;10.394;2023-04-01T08:10:48;11.40;99.90
3310;DHT22;1667;53.238;10.394;2023-04-01T08:16:12;11.40;99.90
3310;DHT22;1667;53.238;10.394;2023-04-01T08:21:23;11.30;99.90
3310;DHT22;1667;53.238;10.394;2023-04-01T08:26:32;11.40;99.90
3310;DHT22;1667;53.238;10.394;2023-04-01T08:31:36;11.40;99.90
3310;DHT22;1667;53.238;10.394;2023-04-01T08:36:38;11.40;99.90
3310;DHT22;1667;53.238;10.394;2023-04-01T08:42:15;11.30;99.90
3310;DHT22;1667;53.238;10.394;2023-04-01T08:47:28;11.20;99.90
3310;DHT22;1667;53.238;10.394;2023-04-01T08:52:34;11.10;99.90
3310;DHT22;1667;53.238;10.394;2023-04-01T08:57:44;10.90;99.90
3310;DHT22;1667;53.238;10.394;2023-04-01T09:08:48;10.80;99.90
3310;DHT22;1667;53.238;10.394;2023-04-01T09:14:13;10.80;99.90
3310;DHT22;1667;53.238;10.394;2023-04-01T09:19:21;10.70;99.90
3310;DHT22;1667;53.238;10.394;2023-04-01T09:25:06;10.60;99.90
3310;DHT22;1667;53.238;10.394;2023-04-01T09:35:46;10.70;99.90
3310;DHT22;1667;53.238;10.394;2023-04-01T09:40:54;10.60;99.90
3310;DHT22;1667;53.238;10.394;2023-04-01T09:46:21;10.60;99.90
3310;DHT22;1667;53.238;10.394;2023-04-01T09:51:31;10.70;99.90
3310;DHT22;1667;53.238;10.394;2023-04-01T10:03:01;10.60;99.90
3310;DHT22;1667;53.238;10.394;2023-04-01T10:08:36;10.60;99.90
3310;DHT22;1667;53.238;10.394;2023-04-01T10:14:05;10.60;99.90
3310;DHT22;1667;53.238;10.394;2023-04-01T10:19:34;10.60;99.90
3310;DHT22;1667;53.238;10.394;2023-04-01T10:47:46;10.40;99.90
3310;DHT22;1667;53.238;10.394;2023-04-01T10:53:29;10.50;99.90
3310;DHT22;1667;53.238;10.394;2023-04-01T11:05:15;10.40;99.90
3310;DHT22;1667;53.238;10.394;2023-04-01T11:10:57;10.50;99.90
3310;DHT22;1667;53.238;10.394;2023-04-01T11:22:19;10.60;99.90
3310;DHT22;1667;53.238;10.394;2023-04-01T11:27:44;10.60;99.90
3310;DHT22;1667;53.238;10.394;2023-04-01T11:32:53;10.60;99.90
3310;DHT22;1667;53.238;10.394;2023-04-01T11:37:58;10.60;99.90
3310;DHT22;1667;53.238;10.394;2023-04-01T11:43:22;10.50;99.90
3310;DHT22;1667;53.238;10.394;2023-04-01T11:48:59;10.60;99.90
3310;DHT22;1667;53.238;10.394;2023-04-01T11:54:17;10.50;99.90
3310;DHT22;1667;53.238;10.394;2023-04-01T12:06:21;10.40;99.90
3310;DHT22;1667;53.238;10.394;2023-04-01T12:11:29;10.20;99.90
3310;DHT22;1667;53.238;10.394;2023-04-01T12:16:48;10.10;99.90
3310;DHT22;1667;53.238;10.394;2023-04-01T12:21:59;10.20;99.90
3310;DHT22;1667;53.238;10.394;2023-04-01T12:27:24;10.40;99.90
3310;DHT22;1667;53.238;10.394;2023-04-01T12:32:32;10.50;99.90
3310;DHT22;1667;53.238;10.394;2023-04-01T12:37:42;10.50;99.90
3310;DHT22;1667;53.238;10.394;2023-04-01T12:42:57;10.20;99.90
3310;DHT22;1667;53.238;10.394;2023-04-01T12:48:13;10.20;99.90
3310;DHT22;1667;53.238;10.394;2023-04-01T12:53:33;10.30;99.90
3310;DHT22;1667;53.238;10.394;2023-04-01T13:04:33;9.90;99.90
3310;DHT22;1667;53.238;10.394;2023-04-01T13:09:42;9.80;99.90
3310;DHT22;1667;53.238;10.394;2023-04-01T13:20:35;9.70;99.90
3310;DHT22;1667;53.238;10.394;2023-04-01T13:25:41;9.80;99.90
3310;DHT22;1667;53.238;10.394;2023-04-01T13:30:47;9.80;99.90
3310;DHT22;1667;53.238;10.394;2023-04-01T13:35:54;9.90;99.90
3310;DHT22;1667;53.238;10.394;2023-04-01T13:41:03;9.90;99.90
3310;DHT22;1667;53.238;10.394;2023-04-01T13:46:17;9.80;99.90
3310;DHT22;1667;53.238;10.394;2023-04-01T13:57:06;9.60;99.90
3310;DHT22;1667;53.238;10.394;2023-04-01T14:02:24;9.50;99.90
3310;DHT22;1667;53.238;10.394;2023-04-01T14:07:41;9.50;99.90
3310;DHT22;1667;53.238;10.394;2023-04-01T14:12:55;9.40;99.90
3310;DHT22;1667;53.238;10.394;2023-04-01T14:18:06;9.10;99.90
3310;DHT22;1667;53.238;10.394;2023-04-01T14:23:29;9.40;99.90
3310;DHT22;1667;53.238;10.394;2023-04-01T14:28:38;9.60;99.90
3310;DHT22;1667;53.238;10.394;2023-04-01T14:33:45;9.20;99.90
3310;DHT22;1667;53.238;10.394;2023-04-01T14:38:52;9.20;99.90
3310;DHT22;1667;53.238;10.394;2023-04-01T14:44:16;9.20;99.90
3310;DHT22;1667;53.238;10.394;2023-04-01T14:49:21;9.10;99.90
3310;DHT22;1667;53.238;10.394;2023-04-01T14:54:30;8.90;99.90
3310;DHT22;1667;53.238;10.394;2023-04-01T14:59:32;9.00;99.90
3310;DHT22;1667;53.238;10.394;2023-04-01T15:04:41;9.00;99.90
3310;DHT22;1667;53.238;10.394;2023-04-01T15:09:44;8.90;99.90
3310;DHT22;1667;53.238;10.394;2023-04-01T15:15:05;8.60;99.90
3310;DHT22;1667;53.238;10.394;2023-04-01T15:20:25;8.70;99.90
3310;DHT22;1667;53.238;10.394;2023-04-01T15:25:36;8.70;99.90
3310;DHT22;1667;53.238;10.394;2023-04-01T15:30:48;8.90;99.90
3310;DHT22;1667;53.238;10.394;2023-04-01T15:36:00;9.00;99.90
3310;DHT22;1667;53.238;10.394;2023-04-01T15:41:07;8.80;99.90
3310;DHT22;1667;53.238;10.394;2023-04-01T15:46:30;8.70;99.90
3310;DHT22;1667;53.238;10.394;2023-04-01T15:51:58;8.50;99.90
3310;DHT22;1667;53.238;10.394;2023-04-01T15:57:11;8.40;99.90
3310;DHT22;1667;53.238;10.394;2023-04-01T16:02:20;8.50;99.90
3310;DHT22;1667;53.238;10.394;2023-04-01T16:12:53;8.60;99.90
3310;DHT22;1667;53.238;10.394;2023-04-01T16:23:26;8.60;99.90
3310;DHT22;1667;53.238;10.394;2023-04-01T16:28:31;8.50;99.90
3310;DHT22;1667;53.238;10.394;2023-04-01T16:33:38;8.30;99.90
3310;DHT22;1667;53.238;10.394;2023-04-01T16:38:41;8.20;99.90
3310;DHT22;1667;53.238;10.394;2023-04-01T16:43:44;8.20;99.90
3310;DHT22;1667;53.238;10.394;2023-04-01T16:48:57;8.00;99.90
3310;DHT22;1667;53.238;10.394;2023-04-01T16:54:04;7.80;99.90
3310;DHT22;1667;53.238;10.394;2023-04-01T16:59:10;7.70;99.90
3310;DHT22;1667;53.238;10.394;2023-04-01T17:04:22;7.50;99.90
3310;DHT22;1667;53.238;10.394;2023-04-01T17:09:29;7.60;99.90
3310;DHT22;1667;53.238;10.394;2023-04-01T17:14:37;7.90;99.90
3310;DHT22;1667;53.238;10.394;2023-04-01T17:20:11;7.80;99.90
3310;DHT22;1667;53.238;10.394;2023-04-01T17:25:25;7.70;99.90
3310;DHT22;1667;53.238;10.394;2023-04-01T17:30:34;7.60;99.90
3310;DHT22;1667;53.238;10.394;2023-04-01T17:35:38;7.60;99.90
3310;DHT22;1667;53.238;10.394;2023-04-01T17:40:48;7.70;99.90
3310;DHT22;1667;53.238;10.394;2023-04-01T17:45:53;7.70;99.90
3310;DHT22;1667;53.238;10.394;2023-04-01T17:56:33;7.70;99.90
3310;DHT22;1667;53.238;10.394;2023-04-01T18:01:45;7.50;99.90
3310;DHT22;1667;53.238;10.394;2023-04-01T18:07:06;7.20;99.90
3310;DHT22;1667;53.238;10.394;2023-04-01T18:12:14;7.30;99.90
3310;DHT22;1667;53.238;10.394;2023-04-01T18:17:25;7.20;99.90
3310;DHT22;1667;53.238;10.394;2023-04-01T18:22:28;6.80;99.90
3310;DHT22;1667;53.238;10.394;2023-04-01T18:27:36;6.90;99.90
3310;DHT22;1667;53.238;10.394;2023-04-01T18:32:42;6.90;99.90
3310;DHT22;1667;53.238;10.394;2023-04-01T18:37:47;6.70;99.90
3310;DHT22;1667;53.238;10.394;2023-04-01T18:42:57;7.00;99.90
3310;DHT22;1667;53.238;10.394;2023-04-01T18:48:08;7.20;99.90
3310;DHT22;1667;53.238;10.394;2023-04-01T18:53:17;7.00;99.90
3310;DHT22;1667;53.238;10.394;2023-04-01T18:58:25;6.70;99.90
3310;DHT22;1667;53.238;10.394;2023-04-01T19:03:31;6.60;99.90
3310;DHT22;1667;53.238;10.394;2023-04-01T19:08:34;6.70;99.90
3310;DHT22;1667;53.238;10.394;2023-04-01T19:13:39;6.70;99.90
3310;DHT22;1667;53.238;10.394;2023-04-01T19:18:51;6.80;99.90
3310;DHT22;1667;53.238;10.394;2023-04-01T19:24:25;6.90;99.90
3310;DHT22;1667;53.238;10.394;2023-04-01T19:29:45;7.00;99.90
3310;DHT22;1667;53.238;10.394;2023-04-01T19:34:53;7.00;99.90
3310;DHT22;1667;53.238;10.394;2023-04-01T19:40:08;7.10;99.90
3310;DHT22;1667;53.238;10.394;2023-04-01T19:45:22;7.10;99.90
3310;DHT22;1667;53.238;10.394;2023-04-01T19:50:29;6.80;99.90
3310;DHT22;1667;53.238;10.394;2023-04-01T19:55:39;6.40;99.90
3310;DHT22;1667;53.238;10.394;2023-04-01T20:00:43;6.60;99.90
3310;DHT22;1667;53.238;10.394;2023-04-01T20:05:52;6.30;99.90
3310;DHT22;1667;53.238;10.394;2023-04-01T20:11:04;6.00;99.90
3310;DHT22;1667;53.238;10.394;2023-04-01T20:16:06;5.60;99.90
3310;DHT22;1667;53.238;10.394;2023-04-01T20:21:18;5.80;99.90
3310;DHT22;1667;53.238;10.394;2023-04-01T20:26:23;6.10;99.90
3310;DHT22;1667;53.238;10.394;2023-04-01T20:31:28;5.90;99.90
3310;DHT22;1667;53.238;10.394;2023-04-01T20:36:36;5.70;99.90
3310;DHT22;1667;53.238;10.394;2023-04-01T20:41:45;5.80;99.90
3310;DHT22;1667;53.238;10.394;2023-04-01T20:46:51;5.90;99.90
3310;DHT22;1667;53.238;10.394;2023-04-01T20:51:54;6.20;99.90
3310;DHT22;1667;53.238;10.394;2023-04-01T20:57:03;6.20;99.90
3310;DHT22;1667;53.238;10.394;2023-04-01T21:02:14;5.70;99.90
3310;DHT22;1667;53.238;10.394;2023-04-01T21:07:20;5.80;99.90
3310;DHT22;1667;53.238;10.394;2023-04-01T21:12:29;5.90;99.90
3310;DHT22;1667;53.238;10.394;2023-04-01T21:17:47;5.70;99.90
3310;DHT22;1667;53.238;10.394;2023-04-01T21:22:59;5.80;99.90
3310;DHT22;1667;53.238;10.394;2023-04-01T21:28:17;5.50;99.90
3310;DHT22;1667;53.238;10.394;2023-04-01T21:33:31;5.30;99.90
3310;DHT22;1667;53.238;10.394;2023-04-01T21:38:45;5.00;99.90
3310;DHT22;1667;53.238;10.394;2023-04-01T21:44:00;5.30;99.90
3310;DHT22;1667;53.238;10.394;2023-04-01T21:49:16;5.40;99.90
3310;DHT22;1667;53.238;10.394;2023-04-01T22:00:16;5.10;99.90
3310;DHT22;1667;53.238;10.394;2023-04-01T22:05:18;5.00;99.90
3310;DHT22;1667;53.238;10.394;2023-04-01T22:10:26;4.80;99.90
3310;DHT22;1667;53.238;10.394;2023-04-01T22:15:44;4.70;99.90
3310;DHT22;1667;53.238;10.394;2023-04-01T22:20:50;4.30;99.90
3310;DHT22;1667;53.238;10.394;2023-04-01T22:26:00;4.20;99.90
3310;DHT22;1667;53.238;10.394;2023-04-01T22:31:03;4.20;99.90
3310;DHT22;1667;53.238;10.394;2023-04-01T22:36:11;4.50;99.90
3310;DHT22;1667;53.238;10.394;2023-04-01T22:41:19;4.60;99.90
3310;DHT22;1667;53.238;10.394;2023-04-01T22:46:40;4.20;99.90
3310;DHT22;1667;53.238;10.394;2023-04-01T22:51:43;4.50;99.90
3310;DHT22;1667;53.238;10.394;2023-04-01T22:56:47;4.20;99.90
3310;DHT22;1667;53.238;10.394;2023-04-01T23:01:52;4.40;99.90
3310;DHT22;1667;53.238;10.394;2023-04-01T23:06:56;4.20;99.90
3310;DHT22;1667;53.238;10.394;2023-04-01T23:11:58;4.20;99.90
3310;DHT22;1667;53.238;10.394;2023-04-01T23:17:05;4.30;99.90
3310;DHT22;1667;53.238;10.394;2023-04-01T23:22:13;4.10;99.90
3310;DHT22;1667;53.238;10.394;2023-04-01T23:27:19;3.80;99.90
3310;DHT22;1667;53.238;10.394;2023-04-01T23:32:22;3.80;99.90
3310;DHT22;1667;53.238;10.394;2023-04-01T23:37:23;3.80;99.90
3310;DHT22;1667;53.238;10.394;2023-04-01T23:42:24;4.00;99.90
3310;DHT22;1667;53.238;10.394;2023-04-01T23:47:29;4.30;99.90
3310;DHT22;1667;53.238;10.394;2023-04-01T23:52:31;4.20;99.90
3310;DHT22;1667;53.238;10.394;2023-04-01T23:57:34;4.30;99.90
